Golden Princess — ZCDA9 — position and weather

sailwx.info

Track history (hours):
 
Tides and Currents Weather Stations Pressure Air Temp Water Temp Dewpoint Dewpoint Depression Visibility Wind Speed Wind Dir Waves Ship Positions

Golden Princess

Operator: Princess Cruises

Last reported at 2015-May-05 13:33 UTC. Time now 2015-May-05 14:14 UTC.
Position N 37°46' W 122°38'.

Length 289.6 m; beam 36 m; draft 8.5 m.

Type: Ship. MMSI: 310344000.

Date/timePositionNaut miles runAvg speedWind from/ knotsBaromVisibWave heightAir tempDewpointWater temp
2015-May-05 13:33N 37°46' W 122°38'10 9.6
2015-May-05 12:33N 37°36' W 122°40'1212.1
2015-May-05 11:33N 37°24' W 122°40'1312.1
2015-May-05 10:28N 37°11' W 122°41'1010.5
2015-May-05 09:33N 37°01' W 122°43'813.5
2015-May-05 09:00N 36°54' W 122°42'4 8.6 310 / 261015.810.8 1.512.3 6.811.4
2015-May-05 08:32N 36°51' W 122°46'11 9.5
2015-May-05 07:23N 36°42' W 122°52'810.0
2015-May-05 06:33N 36°36' W 122°59'1010.0
2015-May-05 05:33N 36°29' W 123°09'10 9.9
2015-May-05 04:33N 36°23' W 123°18'10 9.9
2015-May-05 03:33N 36°17' W 123°28'1010.2
2015-May-05 02:33N 36°10' W 123°37'10 9.9
2015-May-05 01:33N 36°04' W 123°47'9 9.3
2015-May-05 00:33N 35°57' W 123°54'10 9.6
2015-May-04 23:33N 35°49' W 123°47'10 9.8
2015-May-04 22:33N 35°41' W 123°40'1424.3
2015-May-04 22:00N 35°30' W 123°30'4 8.8 320 / 211017.210.8 2.514.010.714.0
2015-May-04 21:33N 35°33' W 123°32'1010.3
2015-May-04 20:33N 35°25' W 123°24'1010.1
2015-May-04 19:33N 35°17' W 123°16'10 9.9
2015-May-04 18:33N 35°10' W 123°09'10 9.9
2015-May-04 17:33N 35°02' W 123°01'1010.1
2015-May-04 16:33N 34°54' W 122°54'1010.3
2015-May-04 15:33N 34°46' W 122°46'20 9.8
2015-May-04 13:30N 34°39' W 122°23'10 9.9
2015-May-04 12:32N 34°37' W 122°12'9 9.6
2015-May-04 11:33N 34°36' W 122°00'10 9.4
2015-May-04 10:32N 34°35' W 121°49'9 9.3
2015-May-04 09:33N 34°33' W 121°38'10 9.8
2015-May-04 08:30N 34°31' W 121°26'1110.4
2015-May-04 07:27N 34°29' W 121°13'30 1.5
2015-May-03 10:33N 34°21' W 120°37'2019.2
2015-May-03 09:29N 34°25' W 121°01'1711.6
2015-May-03 08:03N 34°24' W 120°41'5020.1
2015-May-03 05:33N 34°10' W 119°42'2020.0
2015-May-03 04:33N 34°05' W 119°19'2019.6
2015-May-03 03:33N 33°56' W 118°58'1918.7
2015-May-03 02:34N 33°47' W 118°39'1515.4
2015-May-03 01:33N 33°39' W 118°23'7 6.9
2015-May-03 00:32N 33°44' W 118°17'1 0.6
2015-May-02 23:33N 33°45' W 118°17'0 0.0
2015-May-02 22:32N 33°45' W 118°17'0 0.0
2015-May-02 21:32N 33°45' W 118°17'0 0.0
2015-May-02 20:31N 33°45' W 118°17'0 0.0
2015-May-02 19:31N 33°45' W 118°17'0 0.0
2015-May-02 18:31N 33°45' W 118°17'0 0.0
2015-May-02 17:30N 33°45' W 118°17'0 0.0
2015-May-02 16:33N 33°45' W 118°17'0 0.0
2015-May-02 15:29N 33°45' W 118°17'0 0.0
2015-May-02 14:32N 33°45' W 118°17'0 0.0
2015-May-02 13:31N 33°45' W 118°17'0 0.0
2015-May-02 12:31N 33°45' W 118°17'0 0.0
2015-May-02 11:31N 33°45' W 118°17'0 0.0
2015-May-02 10:33N 33°45' W 118°17'0 0.0
2015-May-02 09:30N 33°45' W 118°17'0 0.0
2015-May-02 08:32N 33°45' W 118°17'0 0.0
2015-May-02 07:32N 33°45' W 118°17'0 0.0
2015-May-02 06:31N 33°45' W 118°17'0 0.0
2015-May-02 05:31N 33°45' W 118°17'0 0.0
2015-May-02 04:33N 33°45' W 118°17'0 0.0
2015-May-02 03:27N 33°45' W 118°17'0 0.0
2015-May-02 02:33N 33°45' W 118°17'0 0.0
2015-May-02 01:32N 33°45' W 118°17'0 0.0
2015-May-02 00:32N 33°45' W 118°17'0 0.0
2015-May-01 23:31N 33°45' W 118°17'0 0.0
2015-May-01 22:31N 33°45' W 118°17'0 0.0
2015-May-01 21:34N 33°45' W 118°17'0 0.0
2015-May-01 20:33N 33°45' W 118°17'0 0.0
2015-May-01 19:33N 33°45' W 118°17'5 4.8
2015-May-01 18:34N 33°41' W 118°14'8 7.9
2015-May-01 17:33N 33°37' W 118°22'1515.0
2015-May-01 16:34N 33°44' W 118°37'1919.1
2015-May-01 15:33N 33°53' W 118°57'2020.5
2015-May-01 14:33N 34°03' W 119°19'2020.5
2015-May-01 13:33N 34°08' W 119°43'6320.1
2015-May-01 10:25N 34°28' W 120°56'2121.1
2015-May-01 09:26N 34°45' W 121°10'1921.2
2015-May-01 08:33N 34°60' W 121°24'2120.9
2015-May-01 07:34N 35°16' W 121°39'2221.7
2015-May-01 06:34N 35°34' W 121°55'2221.5
2015-May-01 05:33N 35°51' W 122°10'2221.7
2015-May-01 04:33N 36°10' W 122°25'2121.4
2015-May-01 03:33N 36°29' W 122°36'2121.2
2015-May-01 02:34N 36°47' W 122°50'1615.5
2015-May-01 01:33N 37°02' W 122°53'1717.4
2015-May-01 00:33N 37°18' W 122°44'1615.5
2015-Apr-30 23:33N 37°33' W 122°45'2 1.7
2015-Apr-30 22:33N 37°35' W 122°46'3 2.7
2015-Apr-30 21:33N 37°37' W 122°45'1010.0
2015-Apr-30 20:34N 37°46' W 122°38'1312.9
2015-Apr-30 19:33N 37°48' W 122°22'2 2.0
2015-Apr-30 18:34N 37°46' W 122°23'0 0.0
2015-Apr-30 17:34N 37°46' W 122°23'0 0.4
2015-Apr-30 16:33N 37°46' W 122°23'0 0.1
2015-Apr-30 15:32N 37°46' W 122°23'0 0.0
2015-Apr-30 14:29N 37°46' W 122°23'0 0.0
2015-Apr-30 13:16N 37°46' W 122°23'0 0.0
2015-Apr-30 12:31N 37°46' W 122°23'0 0.0
2015-Apr-30 11:30N 37°46' W 122°23'0 0.0
2015-Apr-30 10:33N 37°46' W 122°23'0 0.0
2015-Apr-30 09:33N 37°46' W 122°23'0 0.0
2015-Apr-30 08:32N 37°46' W 122°23'0 0.0
2015-Apr-30 07:29N 37°46' W 122°23'0 0.0
2015-Apr-30 06:25N 37°46' W 122°23'0 0.0
2015-Apr-30 05:31N 37°46' W 122°23'0 0.0
2015-Apr-30 04:33N 37°46' W 122°23'0 0.0
2015-Apr-30 03:24N 37°46' W 122°23'0 0.0
2015-Apr-30 02:23N 37°46' W 122°23'0 0.0
2015-Apr-30 01:29N 37°46' W 122°23'0 0.0
2015-Apr-30 00:26N 37°46' W 122°23'0 0.0
2015-Apr-29 23:28N 37°46' W 122°23'0 0.0
2015-Apr-29 22:28N 37°46' W 122°23'0 0.0
2015-Apr-29 21:33N 37°46' W 122°23'0 0.0
2015-Apr-29 20:33N 37°46' W 122°23'0 0.0
2015-Apr-29 19:33N 37°46' W 122°23'0 0.0
2015-Apr-29 18:32N 37°46' W 122°23'0 0.0
2015-Apr-29 17:32N 37°46' W 122°23'0 0.0
2015-Apr-29 16:31N 37°46' W 122°23'0 0.0
2015-Apr-29 15:31N 37°46' W 122°23'0 0.0
2015-Apr-29 14:30N 37°46' W 122°23'0 0.0
2015-Apr-29 13:31N 37°46' W 122°23'0 0.0
2015-Apr-29 12:29N 37°46' W 122°23'0 0.0
2015-Apr-29 11:32N 37°46' W 122°23'0 0.0
2015-Apr-29 10:29N 37°46' W 122°23'0 0.0
2015-Apr-29 09:31N 37°46' W 122°23'0 0.0
2015-Apr-29 08:28N 37°46' W 122°23'0 0.0
2015-Apr-29 07:26N 37°46' W 122°23'0 0.0
2015-Apr-29 06:31N 37°46' W 122°23'0 0.0
2015-Apr-29 05:31N 37°46' W 122°23'0 0.0
2015-Apr-29 04:30N 37°46' W 122°23'0 0.0
2015-Apr-29 03:24N 37°46' W 122°23'0 0.0
2015-Apr-29 02:33N 37°46' W 122°23'0 0.0
2015-Apr-29 01:23N 37°46' W 122°23'0 0.0
2015-Apr-29 00:20N 37°46' W 122°23'0 0.0
2015-Apr-28 23:28N 37°46' W 122°23'0 0.0
2015-Apr-28 22:31N 37°46' W 122°23'0 0.0
2015-Apr-28 21:27N 37°46' W 122°23'0 0.0
2015-Apr-28 20:27N 37°46' W 122°23'0 0.0
2015-Apr-28 19:32N 37°46' W 122°23'0 0.0
2015-Apr-28 18:30N 37°46' W 122°23'0 0.0
2015-Apr-28 17:30N 37°46' W 122°23'0 0.0
2015-Apr-28 16:30N 37°46' W 122°23'0 0.0
2015-Apr-28 15:23N 37°46' W 122°23'0 0.0
2015-Apr-28 14:23N 37°46' W 122°23'0 0.0
2015-Apr-28 13:22N 37°46' W 122°23'0 0.0
2015-Apr-28 12:28N 37°46' W 122°23'0 0.0
2015-Apr-28 11:33N 37°46' W 122°23'0 0.0
2015-Apr-28 10:33N 37°46' W 122°23'0 0.0
2015-Apr-28 09:23N 37°46' W 122°23'0 0.0
2015-Apr-28 08:29N 37°46' W 122°23'0 0.0
2015-Apr-28 07:29N 37°46' W 122°23'0 0.0
2015-Apr-28 06:28N 37°46' W 122°23'0 0.0
2015-Apr-28 05:25N 37°46' W 122°23'0 0.0
2015-Apr-28 04:27N 37°46' W 122°23'0 0.0
2015-Apr-28 02:26N 37°46' W 122°23'0 0.0
2015-Apr-28 01:23N 37°46' W 122°23'0 0.0
2015-Apr-28 00:29N 37°46' W 122°23'0 0.0
2015-Apr-27 23:31N 37°46' W 122°23'0 0.0
2015-Apr-27 22:32N 37°46' W 122°23'0 0.0
2015-Apr-27 21:24N 37°46' W 122°23'0 0.0
2015-Apr-27 20:33N 37°46' W 122°23'0 0.0
2015-Apr-27 19:29N 37°46' W 122°23'0 0.0
2015-Apr-27 18:29N 37°46' W 122°23'0 0.0
2015-Apr-27 17:22N 37°46' W 122°23'0 0.0
2015-Apr-27 16:31N 37°46' W 122°23'0 0.0
2015-Apr-27 15:33N 37°46' W 122°23'  
Track history (hours):
 
Tides and Currents Weather Stations Pressure Air Temp Water Temp Dewpoint Dewpoint Depression Visibility Wind Speed Wind Dir Waves Ship Positions

Golden Princess

Operator: Princess Cruises

Last reported at 2015-May-05 13:33 UTC. Time now 2015-May-05 14:14 UTC.
Position N 37°46' W 122°38'.

Length 289.6 m; beam 36 m; draft 8.5 m.

Type: Ship. MMSI: 310344000.

Date/timePositionNaut miles runAvg speedWind from/ knotsBaromVisibWave heightAir tempDewpointWater temp
2015-May-05 13:33N 37°46' W 122°38'10 9.6
2015-May-05 12:33N 37°36' W 122°40'1212.1
2015-May-05 11:33N 37°24' W 122°40'1312.1
2015-May-05 10:28N 37°11' W 122°41'1010.5
2015-May-05 09:33N 37°01' W 122°43'813.5
2015-May-05 09:00N 36°54' W 122°42'4 8.6 310 / 261015.810.8 1.512.3 6.811.4
2015-May-05 08:32N 36°51' W 122°46'11 9.5
2015-May-05 07:23N 36°42' W 122°52'810.0
2015-May-05 06:33N 36°36' W 122°59'1010.0
2015-May-05 05:33N 36°29' W 123°09'10 9.9
2015-May-05 04:33N 36°23' W 123°18'10 9.9
2015-May-05 03:33N 36°17' W 123°28'1010.2
2015-May-05 02:33N 36°10' W 123°37'10 9.9
2015-May-05 01:33N 36°04' W 123°47'9 9.3
2015-May-05 00:33N 35°57' W 123°54'10 9.6
2015-May-04 23:33N 35°49' W 123°47'10 9.8
2015-May-04 22:33N 35°41' W 123°40'1424.3
2015-May-04 22:00N 35°30' W 123°30'4 8.8 320 / 211017.210.8 2.514.010.714.0
2015-May-04 21:33N 35°33' W 123°32'1010.3
2015-May-04 20:33N 35°25' W 123°24'1010.1
2015-May-04 19:33N 35°17' W 123°16'10 9.9
2015-May-04 18:33N 35°10' W 123°09'10 9.9
2015-May-04 17:33N 35°02' W 123°01'1010.1
2015-May-04 16:33N 34°54' W 122°54'1010.3
2015-May-04 15:33N 34°46' W 122°46'20 9.8
2015-May-04 13:30N 34°39' W 122°23'10 9.9
2015-May-04 12:32N 34°37' W 122°12'9 9.6
2015-May-04 11:33N 34°36' W 122°00'10 9.4
2015-May-04 10:32N 34°35' W 121°49'9 9.3
2015-May-04 09:33N 34°33' W 121°38'10 9.8
2015-May-04 08:30N 34°31' W 121°26'1110.4
2015-May-04 07:27N 34°29' W 121°13'30 1.5
2015-May-03 10:33N 34°21' W 120°37'2019.2
2015-May-03 09:29N 34°25' W 121°01'1711.6
2015-May-03 08:03N 34°24' W 120°41'5020.1
2015-May-03 05:33N 34°10' W 119°42'2020.0
2015-May-03 04:33N 34°05' W 119°19'2019.6
2015-May-03 03:33N 33°56' W 118°58'1918.7
2015-May-03 02:34N 33°47' W 118°39'1515.4
2015-May-03 01:33N 33°39' W 118°23'7 6.9
2015-May-03 00:32N 33°44' W 118°17'1 0.6
2015-May-02 23:33N 33°45' W 118°17'0 0.0
2015-May-02 22:32N 33°45' W 118°17'0 0.0
2015-May-02 21:32N 33°45' W 118°17'0 0.0
2015-May-02 20:31N 33°45' W 118°17'0 0.0
2015-May-02 19:31N 33°45' W 118°17'0 0.0
2015-May-02 18:31N 33°45' W 118°17'0 0.0
2015-May-02 17:30N 33°45' W 118°17'0 0.0
2015-May-02 16:33N 33°45' W 118°17'0 0.0
2015-May-02 15:29N 33°45' W 118°17'0 0.0
2015-May-02 14:32N 33°45' W 118°17'0 0.0
2015-May-02 13:31N 33°45' W 118°17'0 0.0
2015-May-02 12:31N 33°45' W 118°17'0 0.0
2015-May-02 11:31N 33°45' W 118°17'0 0.0
2015-May-02 10:33N 33°45' W 118°17'0 0.0
2015-May-02 09:30N 33°45' W 118°17'0 0.0
2015-May-02 08:32N 33°45' W 118°17'0 0.0
2015-May-02 07:32N 33°45' W 118°17'0 0.0
2015-May-02 06:31N 33°45' W 118°17'0 0.0
2015-May-02 05:31N 33°45' W 118°17'0 0.0
2015-May-02 04:33N 33°45' W 118°17'0 0.0
2015-May-02 03:27N 33°45' W 118°17'0 0.0
2015-May-02 02:33N 33°45' W 118°17'0 0.0
2015-May-02 01:32N 33°45' W 118°17'0 0.0
2015-May-02 00:32N 33°45' W 118°17'0 0.0
2015-May-01 23:31N 33°45' W 118°17'0 0.0
2015-May-01 22:31N 33°45' W 118°17'0 0.0
2015-May-01 21:34N 33°45' W 118°17'0 0.0
2015-May-01 20:33N 33°45' W 118°17'0 0.0
2015-May-01 19:33N 33°45' W 118°17'5 4.8
2015-May-01 18:34N 33°41' W 118°14'8 7.9
2015-May-01 17:33N 33°37' W 118°22'1515.0
2015-May-01 16:34N 33°44' W 118°37'1919.1
2015-May-01 15:33N 33°53' W 118°57'2020.5
2015-May-01 14:33N 34°03' W 119°19'2020.5
2015-May-01 13:33N 34°08' W 119°43'6320.1
2015-May-01 10:25N 34°28' W 120°56'2121.1
2015-May-01 09:26N 34°45' W 121°10'1921.2
2015-May-01 08:33N 34°60' W 121°24'2120.9
2015-May-01 07:34N 35°16' W 121°39'2221.7
2015-May-01 06:34N 35°34' W 121°55'2221.5
2015-May-01 05:33N 35°51' W 122°10'2221.7
2015-May-01 04:33N 36°10' W 122°25'2121.4
2015-May-01 03:33N 36°29' W 122°36'2121.2
2015-May-01 02:34N 36°47' W 122°50'1615.5
2015-May-01 01:33N 37°02' W 122°53'1717.4
2015-May-01 00:33N 37°18' W 122°44'1615.5
2015-Apr-30 23:33N 37°33' W 122°45'2 1.7
2015-Apr-30 22:33N 37°35' W 122°46'3 2.7
2015-Apr-30 21:33N 37°37' W 122°45'1010.0
2015-Apr-30 20:34N 37°46' W 122°38'1312.9
2015-Apr-30 19:33N 37°48' W 122°22'2 2.0
2015-Apr-30 18:34N 37°46' W 122°23'0 0.0
2015-Apr-30 17:34N 37°46' W 122°23'0 0.4
2015-Apr-30 16:33N 37°46' W 122°23'0 0.1
2015-Apr-30 15:32N 37°46' W 122°23'0 0.0
2015-Apr-30 14:29N 37°46' W 122°23'0 0.0
2015-Apr-30 13:16N 37°46' W 122°23'0 0.0
2015-Apr-30 12:31N 37°46' W 122°23'0 0.0
2015-Apr-30 11:30N 37°46' W 122°23'0 0.0
2015-Apr-30 10:33N 37°46' W 122°23'0 0.0
2015-Apr-30 09:33N 37°46' W 122°23'0 0.0
2015-Apr-30 08:32N 37°46' W 122°23'0 0.0
2015-Apr-30 07:29N 37°46' W 122°23'0 0.0
2015-Apr-30 06:25N 37°46' W 122°23'0 0.0
2015-Apr-30 05:31N 37°46' W 122°23'0 0.0
2015-Apr-30 04:33N 37°46' W 122°23'0 0.0
2015-Apr-30 03:24N 37°46' W 122°23'0 0.0
2015-Apr-30 02:23N 37°46' W 122°23'0 0.0
2015-Apr-30 01:29N 37°46' W 122°23'0 0.0
2015-Apr-30 00:26N 37°46' W 122°23'0 0.0
2015-Apr-29 23:28N 37°46' W 122°23'0 0.0
2015-Apr-29 22:28N 37°46' W 122°23'0 0.0
2015-Apr-29 21:33N 37°46' W 122°23'0 0.0
2015-Apr-29 20:33N 37°46' W 122°23'0 0.0
2015-Apr-29 19:33N 37°46' W 122°23'0 0.0
2015-Apr-29 18:32N 37°46' W 122°23'0 0.0
2015-Apr-29 17:32N 37°46' W 122°23'0 0.0
2015-Apr-29 16:31N 37°46' W 122°23'0 0.0
2015-Apr-29 15:31N 37°46' W 122°23'0 0.0
2015-Apr-29 14:30N 37°46' W 122°23'0 0.0
2015-Apr-29 13:31N 37°46' W 122°23'0 0.0
2015-Apr-29 12:29N 37°46' W 122°23'0 0.0
2015-Apr-29 11:32N 37°46' W 122°23'0 0.0
2015-Apr-29 10:29N 37°46' W 122°23'0 0.0
2015-Apr-29 09:31N 37°46' W 122°23'0 0.0
2015-Apr-29 08:28N 37°46' W 122°23'0 0.0
2015-Apr-29 07:26N 37°46' W 122°23'0 0.0
2015-Apr-29 06:31N 37°46' W 122°23'0 0.0
2015-Apr-29 05:31N 37°46' W 122°23'0 0.0
2015-Apr-29 04:30N 37°46' W 122°23'0 0.0
2015-Apr-29 03:24N 37°46' W 122°23'0 0.0
2015-Apr-29 02:33N 37°46' W 122°23'0 0.0
2015-Apr-29 01:23N 37°46' W 122°23'0 0.0
2015-Apr-29 00:20N 37°46' W 122°23'0 0.0
2015-Apr-28 23:28N 37°46' W 122°23'0 0.0
2015-Apr-28 22:31N 37°46' W 122°23'0 0.0
2015-Apr-28 21:27N 37°46' W 122°23'0 0.0
2015-Apr-28 20:27N 37°46' W 122°23'0 0.0
2015-Apr-28 19:32N 37°46' W 122°23'0 0.0
2015-Apr-28 18:30N 37°46' W 122°23'0 0.0
2015-Apr-28 17:30N 37°46' W 122°23'0 0.0
2015-Apr-28 16:30N 37°46' W 122°23'0 0.0
2015-Apr-28 15:23N 37°46' W 122°23'0 0.0
2015-Apr-28 14:23N 37°46' W 122°23'0 0.0
2015-Apr-28 13:22N 37°46' W 122°23'0 0.0
2015-Apr-28 12:28N 37°46' W 122°23'0 0.0
2015-Apr-28 11:33N 37°46' W 122°23'0 0.0
2015-Apr-28 10:33N 37°46' W 122°23'0 0.0
2015-Apr-28 09:23N 37°46' W 122°23'0 0.0
2015-Apr-28 08:29N 37°46' W 122°23'0 0.0
2015-Apr-28 07:29N 37°46' W 122°23'0 0.0
2015-Apr-28 06:28N 37°46' W 122°23'0 0.0
2015-Apr-28 05:25N 37°46' W 122°23'0 0.0
2015-Apr-28 04:27N 37°46' W 122°23'0 0.0
2015-Apr-28 02:26N 37°46' W 122°23'0 0.0
2015-Apr-28 01:23N 37°46' W 122°23'0 0.0
2015-Apr-28 00:29N 37°46' W 122°23'0 0.0
2015-Apr-27 23:31N 37°46' W 122°23'0 0.0
2015-Apr-27 22:32N 37°46' W 122°23'0 0.0
2015-Apr-27 21:24N 37°46' W 122°23'0 0.0
2015-Apr-27 20:33N 37°46' W 122°23'0 0.0
2015-Apr-27 19:29N 37°46' W 122°23'0 0.0
2015-Apr-27 18:29N 37°46' W 122°23'0 0.0
2015-Apr-27 17:22N 37°46' W 122°23'0 0.0
2015-Apr-27 16:31N 37°46' W 122°23'0 0.0
2015-Apr-27 15:33N 37°46' W 122°23'  

Dump ship's entire track history